Flugplatz Sonderlandeplatz Ellwagen (EDPY)

Hier findest Du alle Informationen zum Flugplatz Sonderlandeplatz Ellwagen (EDPY).

Informationen für Piloten zum Flugplatz Sonderlandeplatz Ellwagen

Hier findest Du alle relevanten Informationen, die Du als Pilot benötigst, um Sonderlandeplatz Ellwagen anzufliegen.

Flugplatz: Sonderlandeplatz Ellwagen ICAO-Code: EDPY
Frequenz Turm: 122,000 Mhz GAFOR Gebiet: -
Frequenz Ground: 122,000 Mhz Mogas: nein
Platzrunde: S 2200 ft Landegebühr: -
Platzhöhe: Sunrise: 03:21 Uhr UTC
Pisten: 12/30 - 785 m x 20 m, GRAS Sunset: 19:10 Uhr UTC

Mitglieder, die in Sonderlandeplatz Ellwagen fliegen

Flugwetter am Flugplatz Sonderlandeplatz Ellwagen

Die METAR Information stammen aus EDMA (78.55 km entfernt).

METAR Code:
2024/05/24 04:20
EDMA 240420Z 22005KT 9999 OVC008 11/10 Q1018

Flugschulen am Flugplatz Sonderlandeplatz Ellwagen

Am Flugplatz Sonderlandeplatz Ellwagen gibt es leider keine Flugschule.

Benachbarte Flugplätze und Flugschulen

Es gibt 23 weitere Flugplätze in einem Umkreis von 50 km um den Flugplatz Sonderlandeplatz Ellwagen.

Jetzt anmelden

Passwort vergessen

Umfrage Archiv

Wie häufig haltet Ihr die Halbkreisflugregel ein?

Eher häufig!
35.7 %
Immer!
31 %
Hin und wieder!
16.5 %
Nie!
9.4 %
Eher selten!
7.5 %
Stimmen: 255 | Diskussion
Anzeige: Roland Aircraft
Statistik Alle Mitglieder

Aktuell sind 12 Besucher online.

Anzeige: EasyVFR